Terminal Aerodrome Forecast
Issued by NWS

Home | Current Version | Previous Version | Text Only | Print | Product List | Glossary On
Versions: 1 2 3 4 5 6 7 8 9 10 11 12 13 14 15 16 17 18
000
FTUS46 KSEW 200056 AAA
TAFBFI
TAF AMD
KBFI 200056Z 2001/2024 16012KT P6SM VCSH BKN035 OVC050
      TEMPO 2001/2002 -SHRA
     FM200200 16012KT P6SM -SHRA BKN035 OVC050
     FM200600 16008KT P6SM VCSH SCT035 OVC050 PROB30 2018/2024
      -SHRA=

USA.gov is the U.S. government's official web portal to all federal, state and local government web resources and services.